Airfield :
LOGIN :

Register | Disclaimer

   EN    FR    IT 

 










Legend :    VFR   Marginal VFR   IFR   Intensive IFR   Very Intensive IFR
Visi :
Ceiling :
>= 8 km
>= 3000ft
5 to 8 km
1000 to 3000 ft
1500m to 5 km
500 to 1000 ft
800 to 1500m
200 to 500 ft
< 800m
< 200 ft
Symbols :   Thunderstorms  Fog  Heavy snow  Heavy precipitations  Wind > 20 kt
SIGMETs :     Misc.  Thunderstorms  Icing  Turbulence  Mountain Waves  Volcanic Ashes






- Airport Elevation : 47 ft
- IATA code : BMA


ESSB - Stockholm-Bromma

CURRENT METAR :
  • 251150Z 09011KT 9999 -SHRA BKN029 04/M01 Q0993 R12/09//95

EXPIRED METARs :
  • 251120Z 09011KT 9999 SCT029 04/M02 Q0993 R12/09//95
  • 251050Z 09011KT 9999 SCT027 04/M02 Q0994 R12/09//95
  • 251020Z 08009KT 9999 SCT025 03/M01 Q0994 R12/09//95
  • 250950Z 08007KT CAVOK 03/M00 Q0994 R12/09//95
  • 250920Z 08007KT CAVOK 03/M00 Q0995 R12/09//95

TAF TAF ESSB
Valid from the 25 at 12:00 until the 25 at 21:00 UTC


251130Z 2512/2521 09012KT 9999 SCT025
PROB40 2512/2516 4000 -SHRASN BKN025CB
BECMG 2518/2520 06015G25KT



MET'MAP, your aeronautical weather chart ! - Copyright ORBIFLY December 2007 - Disclaimer

ORBIFLY MET'MAP TEAM :

Programming & Development : Alexandra Zaïnal
Concept & original design : Baudouin d'Aumeries
Assistance for programming : Marc-Olivier Méhu
Technical & hardware support : Manuel Goepfert

Contact : metmap@orbifly.com




SOURCES & CREDITS :

   NOAA